首页
METAR-TAF:

METAR-TAF

机场 :

直布羅陀機場

直布罗陀, 直布罗陀

纬度: 36-09N, 经度: 005-21W, 海拔: 5米

当前天气观测

该预报发布于20分钟前的16:50 UTC
风速6节,风向西
温度 16°C
湿度 59%
气压 1018 hPa
能见度10公里或以上
少量云层高于3000英尺
散云层高于6000英尺
多云层高于25000英尺

METAR: LXGB 161650Z 27006KT 9999 FEW030 SCT060 BKN250 16/08 Q1018 NOSIG

时间: 18:10 (17:10 UTC)

预报

该预报发布于3小时和54分钟前的13:16 UTC
预报有效从16日的 15点(UTC)到 16日的 23点(UTC)
风速8节,风向南转西南
能见度10公里或以上
少量云层高于2000英尺
几率 30% :
短暂存在
从 16日的 15点(UTC)到 16日的 18点(UTC)
散云层高于2000英尺
小阵雨
几率 40% :
短暂存在
从 16日的 18点(UTC)到 16日的 23点(UTC)
能見度: 5000
散云层高于2000英尺
阵雨

TAF: LXGB 161316Z 1615/1623 20008KT 9999 FEW020 PROB30 TEMPO 1615/1618 -SHRA SCT020 PROB40 TEMPO 1618/1623 5000 SHRA SCT020

超过4000个机场的气象观测和天气预报(METAR&TAF报告)。

可查询的气象台以黄色和红色小点在地图上表示。

将鼠标移到小点上方,可查看气象台名称。

然后点击查看天气观测和预报。

如需切换地图:点击带黑十字的绿色按钮放大地图;点击带横线的绿色按钮缩小地图;或者点击绿色箭头查看邻近地区的地图。


METAR-TAF: